METAR Data
IDs: Format: Raw Decoded Include TAF

Data at: 2117 UTC 02 Aug 2021

EGXE 022050Z AUTO 24004KT 9999 NCD 12/09 Q1013